Time;durP1;ratioP1;P1;durP2;ratioP2;P2;SDS_P1;SDS_P2;PMS_P1;PMS_P2;Temp;Humidity;BMP_temperature;BMP_pressure;BME280_temperature;BME280_humidity;BME280_pressure;Samples;Min_cycle;Max_cycle;Signal;HPM_P1;HPM_P2
2022/12/02 00:01:13;;;;;;;48.40;19.80;;;5.90;1.00;;;;;;5031888;28;20610;-71
2022/12/02 00:03:39;;;;;;;57.83;21.37;;;5.90;1.00;;;;;;5028287;28;20412;-71
2022/12/02 00:06:27;;;;;;;47.23;20.67;;;6.00;1.00;;;;;;5027237;28;20456;-71
2022/12/02 00:08:55;;;;;;;50.57;21.87;;;6.00;1.00;;;;;;5028345;28;20531;-71
2022/12/02 00:11:29;;;;;;;57.77;21.40;;;5.90;1.00;;;;;;5023498;28;20451;-71
2022/12/02 00:13:58;;;;;;;48.07;21.20;;;5.90;1.00;;;;;;5028673;28;20475;-71
2022/12/02 00:16:25;;;;;;;50.33;21.07;;;5.90;1.00;;;;;;5049948;22;20452;-72
2022/12/02 00:18:52;;;;;;;42.77;19.13;;;5.90;1.00;;;;;;5007908;28;20576;-72
2022/12/02 00:21:18;;;;;;;48.10;21.10;;;6.00;1.00;;;;;;5013255;28;20569;-71
2022/12/02 00:23:44;;;;;;;44.77;19.60;;;6.00;1.00;;;;;;5011788;28;21095;-71
2022/12/02 00:26:10;;;;;;;47.47;21.67;;;6.00;1.00;;;;;;5020034;28;20421;-71
2022/12/02 00:28:36;;;;;;;50.00;20.33;;;6.00;1.00;;;;;;5007995;28;20183;-69
2022/12/02 00:31:01;;;;;;;48.43;22.70;;;6.00;1.00;;;;;;5012968;28;20436;-69
2022/12/02 00:33:27;;;;;;;48.43;21.43;;;6.00;1.00;;;;;;5009513;28;20262;-71
2022/12/02 00:35:52;;;;;;;47.10;21.70;;;6.00;1.00;;;;;;5016691;28;20656;-71
2022/12/02 00:38:18;;;;;;;41.47;19.47;;;6.00;1.00;;;;;;5016330;28;20201;-71
2022/12/02 00:40:43;;;;;;;50.40;21.83;;;6.00;1.00;;;;;;5015867;28;20548;-71
2022/12/02 00:48:37;;;;;;;48.37;21.80;;;6.10;1.00;;;;;;5027442;28;20419;-71
2022/12/02 00:51:03;;;;;;;47.00;20.83;;;6.10;1.00;;;;;;5010773;28;20846;-70
2022/12/02 00:53:29;;;;;;;42.07;20.40;;;6.10;1.00;;;;;;5020598;28;20183;-71
2022/12/02 00:55:54;;;;;;;46.90;21.43;;;6.10;1.00;;;;;;5018455;28;20182;-71
2022/12/02 00:58:20;;;;;;;47.00;21.50;;;6.10;1.00;;;;;;5021026;28;20215;-72
2022/12/02 01:00:45;;;;;;;44.23;20.97;;;6.10;1.00;;;;;;5018211;28;20633;-71
2022/12/02 01:03:11;;;;;;;47.50;21.37;;;6.10;1.00;;;;;;5012427;28;20297;-72
2022/12/02 01:05:37;;;;;;;46.17;21.10;;;6.10;1.00;;;;;;5020479;28;20649;-70
2022/12/02 01:08:02;;;;;;;45.50;20.47;;;6.10;1.00;;;;;;5023006;28;20202;-71
2022/12/02 01:10:28;;;;;;;49.67;21.93;;;6.50;1.00;;;;;;5016742;28;20312;-71
2022/12/02 01:12:53;;;;;;;46.90;20.37;;;6.00;1.00;;;;;;5024084;28;20174;-71
2022/12/02 01:15:19;;;;;;;44.40;20.47;;;6.00;1.00;;;;;;5024107;28;20174;-71
2022/12/02 01:17:44;;;;;;;50.00;22.23;;;6.00;1.00;;;;;;5024353;28;20761;-72
2022/12/02 01:20:11;;;;;;;42.37;19.80;;;6.00;1.00;;;;;;5019092;28;20175;-70
2022/12/02 01:22:36;;;;;;;49.67;21.33;;;6.00;1.00;;;;;;5013396;28;20630;-71
2022/12/02 01:25:02;;;;;;;45.70;20.43;;;6.00;1.00;;;;;;5017334;28;20511;-70
2022/12/02 01:27:28;;;;;;;49.40;20.87;;;6.00;1.00;;;;;;5030634;28;20284;-71
2022/12/02 01:29:53;;;;;;;45.37;19.90;;;6.00;1.00;;;;;;5019425;28;20185;-70
2022/12/02 01:32:19;;;;;;;48.50;20.60;;;6.10;1.00;;;;;;5014519;28;20174;-71
2022/12/02 01:34:45;;;;;;;46.33;21.60;;;6.10;1.00;;;;;;5024870;28;20185;-70
2022/12/02 01:37:11;;;;;;;50.10;21.00;;;6.10;1.00;;;;;;5022044;28;20432;-70
2022/12/02 01:39:36;;;;;;;45.33;20.20;;;6.10;1.00;;;;;;5020261;28;20250;-70
2022/12/02 01:42:02;;;;;;;46.77;21.10;;;6.00;1.00;;;;;;5011822;28;20545;-70
2022/12/02 01:44:28;;;;;;;45.13;21.90;;;6.00;1.00;;;;;;5012710;28;20664;-70
2022/12/02 01:46:54;;;;;;;49.87;22.67;;;5.90;1.00;;;;;;5018942;28;20729;-70
2022/12/02 01:49:20;;;;;;;47.70;21.00;;;5.90;1.00;;;;;;5020302;28;20181;-70
2022/12/02 01:51:46;;;;;;;40.43;21.03;;;5.90;1.00;;;;;;5018141;28;20272;-70
2022/12/02 01:54:11;;;;;;;43.83;20.50;;;5.90;1.00;;;;;;5023875;28;20174;-70
2022/12/02 01:56:37;;;;;;;56.07;21.10;;;6.00;1.00;;;;;;5016554;28;20637;-70
2022/12/02 01:59:02;;;;;;;44.87;20.93;;;6.00;1.00;;;;;;5012387;28;20280;-70
2022/12/02 02:01:33;;;;;;;51.10;21.50;;;5.60;1.00;;;;;;5006456;28;20178;-70
2022/12/02 02:03:59;;;;;;;46.03;20.63;;;6.00;1.00;;;;;;5011625;28;20545;-70
2022/12/02 02:06:29;;;;;;;46.67;20.87;;;6.00;1.00;;;;;;5018152;28;20594;-70
2022/12/02 02:08:55;;;;;;;48.73;21.20;;;6.00;1.00;;;;;;5014049;28;20437;-70
2022/12/02 02:11:22;;;;;;;46.40;20.90;;;6.00;1.00;;;;;;5016417;28;20422;-69
2022/12/02 02:13:47;;;;;;;46.80;20.60;;;6.00;1.00;;;;;;5012620;28;20457;-70
2022/12/02 02:16:13;;;;;;;47.57;22.03;;;6.00;1.00;;;;;;5023141;28;20554;-70
2022/12/02 02:18:39;;;;;;;42.47;20.20;;;6.00;1.00;;;;;;5020167;28;20209;-69
2022/12/02 02:21:08;;;;;;;46.73;19.63;;;5.90;1.00;;;;;;5007746;28;20444;-69
2022/12/02 02:23:35;;;;;;;42.13;19.90;;;5.90;1.00;;;;;;5019652;28;20198;-69
2022/12/02 02:26:01;;;;;;;44.33;21.03;;;5.90;1.00;;;;;;5007172;28;20494;-70
2022/12/02 02:28:27;;;;;;;45.77;20.47;;;5.80;1.00;;;;;;5023492;28;20486;-70
2022/12/02 02:30:55;;;;;;;45.57;20.50;;;5.80;1.00;;;;;;5015067;28;20434;-68
2022/12/02 02:33:22;;;;;;;49.90;21.23;;;5.80;1.00;;;;;;5011978;28;20175;-70
2022/12/02 02:35:48;;;;;;;40.73;18.70;;;5.80;1.00;;;;;;5017130;28;20428;-69
2022/12/02 02:38:18;;;;;;;47.40;20.97;;;5.80;1.00;;;;;;5024043;28;20482;-70
2022/12/02 02:40:44;;;;;;;43.40;20.90;;;5.80;1.00;;;;;;5022554;28;20432;-69
2022/12/02 02:43:10;;;;;;;45.77;20.83;;;5.80;1.00;;;;;;5017065;28;20509;-70
2022/12/02 02:45:38;;;;;;;46.27;21.03;;;5.70;1.00;;;;;;5018454;28;20420;-69
2022/12/02 02:48:06;;;;;;;42.60;19.90;;;5.80;1.00;;;;;;5018528;28;20891;-71
2022/12/02 02:50:33;;;;;;;48.10;20.67;;;5.80;1.00;;;;;;5015952;28;20429;-69
2022/12/02 02:53:00;;;;;;;50.00;20.07;;;5.90;1.00;;;;;;5022158;28;20788;-70
2022/12/02 02:55:26;;;;;;;49.00;20.70;;;5.90;1.00;;;;;;5009624;28;20437;-70
2022/12/02 02:57:52;;;;;;;47.17;20.70;;;5.90;1.00;;;;;;5020526;28;20460;-69
2022/12/02 03:00:20;;;;;;;45.27;19.30;;;6.00;1.00;;;;;;5023934;28;20828;-70
2022/12/02 03:02:49;;;;;;;40.60;18.70;;;6.00;1.00;;;;;;5010416;28;20605;-71
2022/12/02 03:05:15;;;;;;;46.73;20.20;;;6.40;1.00;;;;;;5008731;28;20656;-69
2022/12/02 03:07:41;;;;;;;41.60;19.00;;;6.00;1.00;;;;;;5019222;28;20440;-70
2022/12/02 03:10:08;;;;;;;42.30;19.53;;;6.00;1.00;;;;;;5008255;28;20209;-68
2022/12/02 03:12:34;;;;;;;44.03;20.20;;;6.00;1.00;;;;;;5010687;28;20193;-69
2022/12/02 03:15:01;;;;;;;43.03;20.07;;;6.10;1.00;;;;;;5013637;28;20439;-70
2022/12/02 03:17:27;;;;;;;54.57;21.50;;;6.10;1.00;;;;;;5020060;28;20213;-67
2022/12/02 03:19:53;;;;;;;48.33;20.80;;;6.10;1.00;;;;;;5017863;28;21004;-70
2022/12/02 03:22:18;;;;;;;45.37;20.70;;;6.10;1.00;;;;;;5011466;28;20172;-70
2022/12/02 03:24:44;;;;;;;54.00;20.43;;;6.10;1.00;;;;;;5013298;28;20178;-70
2022/12/02 03:27:12;;;;;;;46.40;20.37;;;6.10;1.00;;;;;;5009116;28;20223;-70
2022/12/02 03:29:38;;;;;;;48.50;20.17;;;6.10;1.00;;;;;;5012764;28;20421;-69
2022/12/02 03:32:04;;;;;;;45.50;22.03;;;6.10;1.00;;;;;;5016572;28;20420;-69
2022/12/02 03:34:30;;;;;;;46.00;20.70;;;6.10;1.00;;;;;;5009968;28;20429;-70
2022/12/02 03:36:57;;;;;;;46.63;20.63;;;6.10;1.00;;;;;;5008954;28;20197;-69
2022/12/02 03:39:23;;;;;;;50.80;21.63;;;6.10;1.00;;;;;;5017776;28;20572;-70
2022/12/02 03:41:48;;;;;;;49.03;21.43;;;6.10;1.00;;;;;;5008886;28;20406;-68
2022/12/02 03:44:15;;;;;;;51.37;20.77;;;6.00;1.00;;;;;;5010603;28;20182;-70
2022/12/02 03:46:42;;;;;;;49.57;21.50;;;5.90;1.00;;;;;;5019157;28;20197;-69
2022/12/02 03:49:09;;;;;;;45.70;21.20;;;5.90;1.00;;;;;;5018691;28;20924;-70
2022/12/02 03:51:35;;;;;;;47.13;20.53;;;5.90;1.00;;;;;;5015958;28;20467;-70
2022/12/02 03:54:00;;;;;;;48.60;20.50;;;5.90;1.00;;;;;;5020845;28;20903;-70
2022/12/02 03:56:26;;;;;;;51.40;21.13;;;6.00;1.00;;;;;;5015886;28;20206;-70
2022/12/02 03:58:53;;;;;;;57.10;21.30;;;6.00;1.00;;;;;;5021371;28;20627;-71
2022/12/02 04:01:20;;;;;;;48.50;20.60;;;6.00;1.00;;;;;;5012205;28;20174;-71
2022/12/02 04:03:46;;;;;;;48.33;20.30;;;5.90;1.00;;;;;;5006821;28;20432;-70
2022/12/02 04:06:12;;;;;;;53.17;21.80;;;5.70;3.10;;;;;;5005007;28;20426;-71
2022/12/02 04:08:37;;;;;;;43.50;19.00;;;5.70;4.80;;;;;;5017241;28;20445;-70
2022/12/02 04:11:03;;;;;;;46.67;19.60;;;5.70;6.90;;;;;;5014805;28;20232;-69
2022/12/02 04:13:29;;;;;;;46.97;20.30;;;5.60;6.30;;;;;;5015474;28;20506;-70
2022/12/02 04:15:55;;;;;;;47.63;20.47;;;5.50;8.90;;;;;;5009582;28;20476;-70
2022/12/02 04:18:20;;;;;;;56.00;21.77;;;5.50;10.20;;;;;;5014888;28;20296;-71
2022/12/02 04:20:46;;;;;;;47.83;20.60;;;4.60;12.60;;;;;;5011005;28;20186;-70
2022/12/02 04:23:12;;;;;;;46.43;20.57;;;5.50;11.90;;;;;;5021039;28;20220;-70
2022/12/02 04:25:37;;;;;;;51.87;21.37;;;5.50;14.60;;;;;;5017810;28;20201;-70
2022/12/02 04:28:03;;;;;;;45.83;19.87;;;5.50;15.20;;;;;;5021244;28;20205;-71
2022/12/02 04:30:29;;;;;;;51.60;20.93;;;5.50;13.10;;;;;;5021496;28;20180;-71
2022/12/02 04:32:54;;;;;;;49.73;21.00;;;5.40;14.80;;;;;;5005282;28;20441;-70
2022/12/02 04:35:20;;;;;;;53.60;21.83;;;5.40;17.30;;;;;;5017142;28;20266;-71
2022/12/02 04:37:45;;;;;;;48.20;21.30;;;5.40;17.70;;;;;;5019349;28;20665;-71
2022/12/02 04:40:11;;;;;;;46.80;20.97;;;5.30;16.50;;;;;;5015442;28;20250;-70
2022/12/02 04:42:37;;;;;;;46.20;20.00;;;5.30;19.20;;;;;;5025570;28;20178;-71
2022/12/02 04:45:03;;;;;;;43.20;18.73;;;5.20;23.00;;;;;;5014922;28;20182;-70
2022/12/02 04:47:28;;;;;;;46.20;21.20;;;5.20;20.90;;;;;;5013262;28;20190;-71
2022/12/02 04:49:54;;;;;;;46.63;19.27;;;5.30;24.40;;;;;;5010094;28;20447;-71
2022/12/02 04:52:19;;;;;;;41.90;20.10;;;5.30;22.90;;;;;;5018487;28;20167;-71
2022/12/02 04:54:45;;;;;;;41.43;18.83;;;5.30;24.80;;;;;;5008900;28;20183;-71
2022/12/02 04:57:11;;;;;;;49.40;19.30;;;5.40;23.00;;;;;;5024242;28;20198;-71
2022/12/02 04:59:36;;;;;;;42.40;19.23;;;5.30;23.40;;;;;;5011037;28;20253;-71
2022/12/02 05:02:02;;;;;;;45.50;20.57;;;5.40;23.30;;;;;;5013491;28;20179;-71
2022/12/02 05:04:27;;;;;;;42.10;18.63;;;5.40;23.50;;;;;;5010696;28;20599;-71
2022/12/02 05:06:53;;;;;;;42.27;18.63;;;5.40;20.50;;;;;;5020079;28;20202;-71
2022/12/02 05:09:18;;;;;;;41.40;18.87;;;5.30;22.60;;;;;;5004313;28;20646;-71
2022/12/02 05:11:44;;;;;;;43.30;19.23;;;5.30;22.70;;;;;;5004420;28;20266;-71
2022/12/02 05:14:09;;;;;;;46.70;18.70;;;5.30;22.00;;;;;;5016481;28;20175;-71
2022/12/02 05:16:35;;;;;;;41.60;19.60;;;5.30;21.10;;;;;;5014653;28;20199;-70
2022/12/02 05:19:01;;;;;;;43.80;18.10;;;5.30;21.30;;;;;;5015657;28;20210;-71
2022/12/02 05:21:26;;;;;;;43.17;18.93;;;5.30;20.20;;;;;;5013086;28;20184;-70
2022/12/02 05:23:52;;;;;;;42.93;17.20;;;5.40;21.50;;;;;;5006883;28;20650;-69
2022/12/02 05:26:17;;;;;;;47.83;18.60;;;5.40;19.30;;;;;;5016387;28;20194;-71
2022/12/02 05:28:43;;;;;;;38.60;18.17;;;5.40;21.50;;;;;;5022153;28;20182;-71
2022/12/02 05:31:08;;;;;;;40.07;17.40;;;5.40;21.40;;;;;;5013787;28;20178;-70
2022/12/02 05:33:34;;;;;;;44.90;19.10;;;5.50;19.90;;;;;;5016090;28;20189;-69
2022/12/02 05:35:59;;;;;;;42.47;17.53;;;5.40;19.20;;;;;;5019871;28;20273;-70
2022/12/02 05:38:25;;;;;;;42.63;18.23;;;5.40;20.00;;;;;;5015226;28;20593;-70
2022/12/02 05:40:54;;;;;;;41.93;18.10;;;5.50;18.80;;;;;;5017201;28;20187;-71
2022/12/02 05:43:22;;;;;;;45.73;19.73;;;5.50;16.50;;;;;;5020542;28;20181;-71
2022/12/02 05:45:48;;;;;;;44.50;19.23;;;5.40;18.50;;;;;;5022008;28;20487;-71
2022/12/02 05:48:15;;;;;;;40.70;18.83;;;5.50;16.20;;;;;;5021918;28;20456;-71
2022/12/02 05:50:42;;;;;;;43.60;19.50;;;5.50;17.30;;;;;;5011975;28;20175;-70
2022/12/02 05:53:22;;;;;;;43.47;18.73;;;5.60;17.40;;;;;;5023331;28;20459;-71
2022/12/02 05:55:52;;;;;;;41.90;17.90;;;5.60;16.60;;;;;;5014031;28;20444;-71
2022/12/02 05:58:18;;;;;;;42.33;17.80;;;5.60;13.80;;;;;;5023515;28;20464;-71
2022/12/02 06:00:48;;;;;;;37.67;17.00;;;5.50;15.70;;;;;;5024810;28;20429;-69
2022/12/02 06:03:17;;;;;;;41.63;18.03;;;5.50;17.00;;;;;;5016987;28;20790;-70
2022/12/02 06:05:43;;;;;;;41.07;18.93;;;5.40;18.00;;;;;;5016777;28;20859;-71
2022/12/02 06:08:32;;;;;;;39.07;17.93;;;5.40;17.50;;;;;;5018654;28;20550;-71
2022/12/02 06:11:02;;;;;;;39.27;17.70;;;5.40;19.70;;;;;;5019206;28;20182;-70
2022/12/02 06:13:31;;;;;;;42.37;19.80;;;5.50;18.50;;;;;;5008495;28;20441;-71
2022/12/02 06:15:58;;;;;;;44.50;19.20;;;5.40;19.00;;;;;;5018619;28;20512;-71
2022/12/02 06:18:29;;;;;;;41.13;19.17;;;5.50;20.00;;;;;;5017402;28;20472;-70
2022/12/02 06:21:04;;;;;;;38.90;18.77;;;5.50;17.90;;;;;;5012078;28;20935;-70
2022/12/02 06:23:31;;;;;;;41.37;18.10;;;5.60;20.40;;;;;;5011675;28;20437;-70
2022/12/02 06:25:58;;;;;;;42.57;18.90;;;5.70;18.10;;;;;;5006660;28;21102;-71
2022/12/02 06:28:37;;;;;;;41.70;18.60;;;5.60;16.30;;;;;;5010970;28;20468;-71
2022/12/02 06:31:15;;;;;;;45.40;18.73;;;5.60;17.60;;;;;;5001203;28;20447;-69
2022/12/02 06:33:43;;;;;;;40.50;18.63;;;5.70;16.20;;;;;;5009736;28;21043;-70
2022/12/02 06:36:14;;;;;;;39.53;18.20;;;5.60;14.90;;;;;;5022343;28;20421;-70
2022/12/02 06:38:50;;;;;;;40.53;18.47;;;5.60;17.40;;;;;;5022517;28;20489;-70
2022/12/02 06:41:35;;;;;;;41.07;18.93;;;5.70;17.40;;;;;;5016350;28;20444;-70
2022/12/02 06:46:54;;;;;;;39.50;16.50;;;5.70;16.40;;;;;;5011576;28;20494;-71
2022/12/02 06:49:24;;;;;;;41.80;19.20;;;5.60;17.40;;;;;;5007533;28;21031;-70
2022/12/02 06:51:56;;;;;;;38.73;17.40;;;5.60;19.20;;;;;;5014008;28;20185;-70
2022/12/02 06:54:27;;;;;;;39.23;17.80;;;5.70;17.20;;;;;;5020956;28;20436;-70
2022/12/02 06:56:52;;;;;;;46.33;19.43;;;5.70;18.30;;;;;;5022452;28;20870;-71
2022/12/02 06:59:21;;;;;;;38.50;17.70;;;5.70;18.00;;;;;;5009488;28;20615;-70
2022/12/02 07:01:50;;;;;;;42.90;18.13;;;5.60;16.80;;;;;;5015091;28;20185;-70
2022/12/02 07:04:36;;;;;;;40.93;17.23;;;5.60;18.20;;;;;;5020643;28;20444;-71
2022/12/02 07:07:18;;;;;;;41.60;17.53;;;5.60;17.60;;;;;;5018303;28;20436;-69
2022/12/02 07:09:52;;;;;;;41.63;18.37;;;5.60;16.90;;;;;;5009840;28;20444;-71
2022/12/02 07:12:20;;;;;;;38.93;18.27;;;5.50;17.30;;;;;;5007500;28;20865;-71
2022/12/02 07:14:55;;;;;;;53.83;19.97;;;5.40;20.10;;;;;;5016923;28;20425;-70
2022/12/02 14:54:25;;;;;;;12.77;8.00;;;3.60;99.90;;;;;;5063543;28;20652;-70
2022/12/02 14:56:50;;;;;;;18.43;9.80;;;3.80;99.90;;;;;;5066760;28;20414;-70
2022/12/02 14:59:16;;;;;;;15.87;9.00;;;3.80;99.90;;;;;;5062712;28;20187;-71
2022/12/02 15:01:41;;;;;;;16.13;8.50;;;3.90;99.90;;;;;;5064411;28;20274;-67
2022/12/02 15:04:07;;;;;;;11.73;7.70;;;4.00;99.90;;;;;;5063107;28;20272;-70
2022/12/02 15:06:35;;;;;;;13.77;8.30;;;4.10;99.90;;;;;;5065452;28;20185;-70
2022/12/02 15:09:00;;;;;;;15.00;10.00;;;4.30;99.90;;;;;;5058413;28;20445;-71
2022/12/02 15:11:26;;;;;;;13.80;8.73;;;4.30;99.90;;;;;;5061838;28;20435;-70
2022/12/02 15:13:51;;;;;;;13.70;7.80;;;4.40;99.90;;;;;;5063138;28;20216;-71
2022/12/02 15:16:17;;;;;;;12.77;7.93;;;4.50;99.90;;;;;;5065316;28;20184;-71
2022/12/02 15:18:42;;;;;;;12.90;8.50;;;4.40;97.10;;;;;;5066338;28;20234;-71
2022/12/02 15:21:08;;;;;;;18.80;8.87;;;4.40;98.40;;;;;;5061286;28;20174;-71
2022/12/02 15:23:33;;;;;;;13.97;8.90;;;4.50;99.90;;;;;;5061948;28;20188;-71
2022/12/02 15:25:59;;;;;;;13.93;9.00;;;4.50;97.10;;;;;;5062764;28;20183;-70
2022/12/02 15:28:24;;;;;;;10.73;7.53;;;4.50;97.10;;;;;;5066204;28;20354;-70
2022/12/02 15:30:50;;;;;;;12.90;7.57;;;4.50;97.10;;;;;;5064110;28;20173;-70
2022/12/02 15:33:15;;;;;;;14.03;8.50;;;4.50;94.10;;;;;;5062930;28;20215;-71
2022/12/02 15:35:41;;;;;;;10.83;7.73;;;4.60;97.10;;;;;;5063417;28;20172;-71
2022/12/02 15:38:07;;;;;;;15.00;8.73;;;4.60;96.00;;;;;;5065175;28;20207;-71
2022/12/02 15:40:32;;;;;;;20.90;12.37;;;4.70;98.50;;;;;;5059470;28;20184;-71
2022/12/02 15:42:58;;;;;;;20.50;13.20;;;4.70;97.20;;;;;;5064303;28;20218;-71
2022/12/02 15:45:23;;;;;;;12.93;8.90;;;4.70;97.30;;;;;;5064887;28;20699;-70
2022/12/02 15:47:49;;;;;;;14.03;9.20;;;4.70;92.50;;;;;;5063796;28;20215;-71
2022/12/02 15:50:14;;;;;;;13.80;10.07;;;4.70;90.60;;;;;;5055637;28;20173;-70
2022/12/02 15:52:40;;;;;;;18.03;10.00;;;4.70;91.70;;;;;;5060805;28;20208;-70
2022/12/02 15:55:06;;;;;;;13.63;8.90;;;4.70;91.30;;;;;;5060558;28;20311;-69
2022/12/02 15:57:31;;;;;;;14.20;8.50;;;4.70;93.00;;;;;;5063016;28;20188;-71
2022/12/02 15:59:57;;;;;;;13.17;8.43;;;4.60;74.20;;;;;;5063988;28;20917;-71
2022/12/02 16:02:22;;;;;;;13.40;8.53;;;4.60;83.80;;;;;;5064992;28;20200;-70
2022/12/02 16:04:48;;;;;;;16.97;10.10;;;4.60;81.80;;;;;;5055975;28;20177;-71
2022/12/02 16:07:14;;;;;;;16.83;10.50;;;4.60;86.40;;;;;;5050875;28;20195;-69
2022/12/02 16:09:39;;;;;;;16.20;10.60;;;4.70;91.30;;;;;;5050410;28;20666;-71
2022/12/02 16:12:05;;;;;;;18.33;10.50;;;4.70;93.20;;;;;;5054257;28;20176;-71
2022/12/02 16:14:31;;;;;;;15.53;9.70;;;4.80;91.20;;;;;;5049726;28;20189;-68
2022/12/02 16:16:56;;;;;;;21.27;11.50;;;4.70;81.80;;;;;;5047098;28;20199;-71
2022/12/02 16:19:22;;;;;;;14.53;9.63;;;4.70;85.30;;;;;;5050599;28;20178;-71
2022/12/02 16:21:47;;;;;;;13.97;9.40;;;4.60;83.10;;;;;;5049051;28;20655;-73
2022/12/02 16:24:13;;;;;;;16.83;9.93;;;4.70;95.60;;;;;;5051903;28;20655;-72
2022/12/02 16:26:38;;;;;;;15.73;9.20;;;4.80;93.30;;;;;;5046661;28;20732;-72
2022/12/02 16:29:04;;;;;;;15.83;9.63;;;4.70;81.60;;;;;;5045182;28;20205;-72
2022/12/02 16:31:29;;;;;;;15.07;9.77;;;4.70;87.80;;;;;;5051243;28;20212;-72
2022/12/02 16:33:55;;;;;;;12.40;8.30;;;4.70;91.00;;;;;;5047650;28;20205;-72
2022/12/02 16:36:21;;;;;;;16.07;9.73;;;4.10;81.90;;;;;;5042346;28;20249;-71
2022/12/02 16:38:47;;;;;;;15.40;10.30;;;4.60;88.10;;;;;;5039527;28;20516;-72
2022/12/02 16:41:12;;;;;;;16.10;10.27;;;4.70;90.30;;;;;;5049251;28;20205;-71
2022/12/02 16:43:38;;;;;;;13.87;8.63;;;4.70;86.50;;;;;;5050461;28;20435;-72
2022/12/02 16:46:03;;;;;;;15.73;9.13;;;4.70;89.90;;;;;;5045859;28;20189;-69
2022/12/02 16:48:29;;;;;;;13.37;8.90;;;4.70;91.00;;;;;;5050382;28;20201;-71
2022/12/02 16:50:54;;;;;;;19.40;10.33;;;4.60;84.60;;;;;;5050210;28;20177;-70
2022/12/02 16:53:20;;;;;;;15.90;9.80;;;4.60;85.30;;;;;;5051755;28;20497;-71
2022/12/02 16:55:46;;;;;;;15.17;9.40;;;4.50;88.80;;;;;;5050943;28;20195;-71
2022/12/02 16:58:11;;;;;;;14.50;9.40;;;4.50;90.40;;;;;;5050886;28;20193;-71
2022/12/02 17:00:37;;;;;;;12.50;8.27;;;4.50;90.60;;;;;;5054607;28;20180;-71
2022/12/02 17:03:02;;;;;;;13.27;8.27;;;4.50;88.00;;;;;;5050924;28;20185;-70
2022/12/02 17:05:28;;;;;;;15.47;8.40;;;4.50;90.50;;;;;;5050673;28;20185;-71
2022/12/02 17:07:54;;;;;;;23.07;11.23;;;4.50;93.50;;;;;;5051475;28;20211;-71
2022/12/02 17:10:20;;;;;;;20.37;11.43;;;4.50;90.50;;;;;;5045133;28;20432;-70
2022/12/02 17:12:45;;;;;;;18.13;10.10;;;4.50;90.60;;;;;;5033780;28;20686;-71
2022/12/02 17:15:11;;;;;;;15.63;10.23;;;4.40;94.00;;;;;;5041345;28;20185;-71
2022/12/02 17:17:37;;;;;;;20.20;11.80;;;4.50;95.90;;;;;;5040679;28;20576;-71
2022/12/02 17:20:03;;;;;;;22.20;12.90;;;4.50;97.10;;;;;;5050734;28;20420;-69
2022/12/02 17:22:29;;;;;;;19.50;11.03;;;4.60;97.20;;;;;;5043209;28;20188;-71
2022/12/02 17:24:54;;;;;;;16.53;10.50;;;4.50;97.00;;;;;;5048652;28;20424;-71
2022/12/02 17:27:20;;;;;;;15.63;10.10;;;4.50;95.60;;;;;;5050186;28;20232;-71
2022/12/02 17:29:46;;;;;;;21.90;9.60;;;4.40;90.10;;;;;;5051007;28;20259;-72
2022/12/02 17:32:11;;;;;;;16.63;10.00;;;4.30;96.80;;;;;;5045255;28;20264;-72
2022/12/02 17:34:37;;;;;;;15.37;9.20;;;4.40;97.10;;;;;;5050306;28;20713;-71
2022/12/02 17:37:02;;;;;;;14.60;9.70;;;4.40;97.00;;;;;;5043841;28;20283;-72
2022/12/02 17:39:28;;;;;;;16.70;10.73;;;4.40;97.20;;;;;;5045328;28;20262;-72
2022/12/02 17:41:53;;;;;;;18.63;9.77;;;4.40;99.90;;;;;;5042649;28;20174;-71
2022/12/02 17:44:19;;;;;;;12.90;9.00;;;4.50;99.80;;;;;;5041465;28;20268;-71
2022/12/02 17:46:44;;;;;;;19.57;9.97;;;4.50;99.90;;;;;;5048744;28;20215;-71
2022/12/02 17:49:10;;;;;;;19.50;10.73;;;4.50;99.90;;;;;;5031150;28;20236;-72
2022/12/02 17:51:36;;;;;;;17.00;10.03;;;4.50;99.90;;;;;;5031355;28;20189;-71
2022/12/02 17:54:02;;;;;;;13.20;8.90;;;4.60;99.90;;;;;;5050404;28;20220;-71
2022/12/02 17:56:27;;;;;;;16.23;10.17;;;4.50;99.90;;;;;;5044173;28;20431;-71
2022/12/02 17:58:53;;;;;;;16.23;10.90;;;4.50;99.90;;;;;;5047581;28;20253;-72
2022/12/02 18:01:18;;;;;;;16.23;10.43;;;4.50;99.90;;;;;;5044334;28;20196;-72
2022/12/02 18:03:44;;;;;;;17.80;10.33;;;4.50;99.90;;;;;;5047332;28;20178;-72
2022/12/02 18:06:09;;;;;;;18.17;10.77;;;4.40;99.90;;;;;;5042803;28;20181;-71
2022/12/02 18:08:35;;;;;;;16.37;11.07;;;4.50;99.90;;;;;;5049789;28;20219;-72
2022/12/02 18:11:00;;;;;;;19.93;11.60;;;4.50;99.90;;;;;;5032731;28;20657;-69
2022/12/02 18:13:27;;;;;;;16.93;10.17;;;4.50;99.90;;;;;;5031757;28;20656;-72
2022/12/02 18:15:52;;;;;;;14.83;9.60;;;4.50;99.90;;;;;;5045586;28;20591;-71
2022/12/02 18:18:18;;;;;;;16.20;10.47;;;4.50;99.90;;;;;;5048281;28;20427;-72
2022/12/02 18:20:43;;;;;;;17.30;10.80;;;4.50;99.90;;;;;;5029223;28;20170;-70
2022/12/02 18:23:09;;;;;;;17.60;10.53;;;4.50;99.90;;;;;;5030909;28;20525;-71
2022/12/02 18:25:35;;;;;;;15.90;9.23;;;4.50;99.90;;;;;;5039409;28;20181;-71
2022/12/02 18:28:01;;;;;;;15.10;9.33;;;4.50;99.90;;;;;;5049527;28;20424;-71
2022/12/02 18:30:26;;;;;;;13.40;8.60;;;4.50;99.90;;;;;;5033881;28;20200;-71
2022/12/02 18:32:52;;;;;;;13.90;8.87;;;4.50;99.90;;;;;;5048801;28;20193;-71
2022/12/02 18:35:17;;;;;;;16.00;10.00;;;4.50;99.90;;;;;;5045750;28;20524;-71
2022/12/02 18:37:43;;;;;;;11.80;8.53;;;4.50;99.90;;;;;;5048631;28;20244;-72
2022/12/02 18:40:14;;;;;;;13.30;8.87;;;4.50;99.90;;;;;;5036538;28;20170;-71
2022/12/02 18:42:40;;;;;;;14.40;8.87;;;4.50;99.90;;;;;;5045758;28;20176;-71
2022/12/02 18:45:06;;;;;;;20.93;10.27;;;4.40;99.90;;;;;;5038441;28;20958;-71
2022/12/02 18:47:32;;;;;;;14.77;9.23;;;4.40;99.90;;;;;;5045358;28;20193;-71
2022/12/02 18:49:57;;;;;;;17.50;10.40;;;4.50;99.90;;;;;;5049654;28;20415;-71
2022/12/02 18:52:23;;;;;;;18.47;10.30;;;4.60;99.90;;;;;;5047987;28;20200;-71
2022/12/02 18:54:49;;;;;;;14.83;9.20;;;4.50;99.90;;;;;;5045298;28;20174;-71
2022/12/02 18:57:14;;;;;;;14.40;9.57;;;4.40;99.50;;;;;;5030592;28;20197;-71
2022/12/02 18:59:40;;;;;;;16.60;9.60;;;4.40;99.90;;;;;;5039356;28;20264;-72
2022/12/02 19:02:05;;;;;;;18.63;9.90;;;4.50;99.90;;;;;;5049919;28;20181;-71
2022/12/02 19:04:31;;;;;;;18.33;10.00;;;4.50;99.90;;;;;;5034979;28;20178;-72
2022/12/02 19:06:56;;;;;;;15.83;9.40;;;4.50;99.90;;;;;;5031122;28;21511;-71
2022/12/02 19:09:22;;;;;;;20.70;11.40;;;4.50;99.90;;;;;;5039309;28;20544;-71
2022/12/02 19:11:47;;;;;;;18.33;10.27;;;4.40;99.90;;;;;;5048099;28;20551;-72
2022/12/02 19:14:13;;;;;;;16.30;10.20;;;4.50;99.90;;;;;;5049667;28;20205;-72
2022/12/02 19:16:38;;;;;;;17.07;9.63;;;4.50;99.90;;;;;;5040336;28;20174;-71
2022/12/02 19:19:04;;;;;;;25.83;10.67;;;4.40;99.90;;;;;;5028388;28;20197;-71
2022/12/02 19:21:29;;;;;;;17.30;10.37;;;4.50;99.90;;;;;;5028046;28;20177;-71
2022/12/02 19:23:55;;;;;;;17.53;10.30;;;4.40;99.90;;;;;;5039375;28;20201;-72
2022/12/02 19:26:22;;;;;;;16.03;10.33;;;4.30;99.90;;;;;;5048422;28;20211;-70
2022/12/02 19:28:47;;;;;;;17.60;10.37;;;4.40;99.90;;;;;;5058825;22;20700;-73
2022/12/02 19:31:13;;;;;;;13.87;8.60;;;4.40;99.90;;;;;;5037258;28;20442;-70
2022/12/02 19:33:38;;;;;;;16.57;10.17;;;4.40;99.90;;;;;;5032324;28;20204;-70
2022/12/02 19:36:04;;;;;;;18.10;10.40;;;4.40;99.90;;;;;;5028498;28;20176;-70
2022/12/02 19:38:29;;;;;;;16.00;10.20;;;4.40;99.90;;;;;;5032071;28;20237;-69
2022/12/02 19:40:55;;;;;;;16.33;10.40;;;4.50;99.90;;;;;;5031748;28;20256;-70
2022/12/02 19:43:20;;;;;;;17.07;10.60;;;4.40;99.90;;;;;;5043059;28;20671;-71
2022/12/02 19:45:46;;;;;;;15.80;10.53;;;4.40;99.90;;;;;;5046535;28;20306;-70
2022/12/02 19:48:11;;;;;;;16.83;9.77;;;4.40;99.90;;;;;;5036364;28;20770;-72
2022/12/02 19:50:37;;;;;;;15.80;9.50;;;4.40;99.90;;;;;;5039491;28;20180;-72
2022/12/02 19:53:02;;;;;;;19.03;11.07;;;4.30;99.90;;;;;;5033679;28;20194;-70
2022/12/02 19:55:28;;;;;;;17.97;10.83;;;4.30;99.90;;;;;;5031577;28;20240;-70
2022/12/02 19:57:54;;;;;;;24.10;13.40;;;4.30;99.90;;;;;;5035760;28;20169;-71
2022/12/02 20:00:20;;;;;;;15.87;10.10;;;4.30;99.90;;;;;;5056296;28;20224;-69
2022/12/02 20:02:45;;;;;;;19.33;10.87;;;4.30;99.90;;;;;;5032304;28;20700;-70
2022/12/02 20:05:14;;;;;;;18.37;10.50;;;4.30;99.90;;;;;;5031892;28;20460;-70
2022/12/02 20:07:40;;;;;;;15.07;10.30;;;4.30;99.90;;;;;;5051990;28;20192;-70
2022/12/02 20:10:07;;;;;;;15.87;10.53;;;4.30;99.90;;;;;;5052052;28;20439;-70
2022/12/02 20:12:32;;;;;;;14.07;9.53;;;4.30;99.90;;;;;;5051759;28;20618;-72
2022/12/02 20:14:58;;;;;;;17.00;10.83;;;4.30;99.90;;;;;;5035423;28;20417;-70
2022/12/02 20:17:23;;;;;;;28.40;16.40;;;4.30;99.90;;;;;;5035305;28;20174;-70
2022/12/02 20:19:49;;;;;;;33.60;20.93;;;4.40;99.90;;;;;;5049676;28;20197;-70
2022/12/02 20:22:14;;;;;;;15.90;9.50;;;4.30;99.90;;;;;;5039051;28;20197;-70
2022/12/02 20:24:40;;;;;;;16.50;10.27;;;4.30;99.90;;;;;;5032792;28;20196;-70